Time;durP1;ratioP1;P1;durP2;ratioP2;P2;SDS_P1;SDS_P2;PMS_P1;PMS_P2;Temp;Humidity;BMP_temperature;BMP_pressure;BME280_temperature;BME280_humidity;BME280_pressure;Samples;Min_cycle;Max_cycle;Signal;HPM_P1;HPM_P2
2021/07/22 00:01:01;;;;;;;18.23;10.50;;;;;;;;;;5026564;28;20181;-86
2021/07/22 00:04:05;;;;;;;12.23;9.73;;;;;;;;;;4993058;28;20185;-86
2021/07/22 00:07:09;;;;;;;15.37;10.50;;;;;;;;;;5001105;28;20193;-85
2021/07/22 00:10:15;;;;;;;15.73;10.10;;;;;;;;;;5003036;28;20225;-85
2021/07/22 00:13:19;;;;;;;13.10;10.17;;;;;;;;;;5007073;28;20216;-85
2021/07/22 00:16:23;;;;;;;13.83;10.00;;;;;;;;;;4993035;28;20568;-85
2021/07/22 00:19:28;;;;;;;20.27;10.10;;;;;;;;;;4994291;28;20231;-85
2021/07/22 00:22:35;;;;;;;13.87;9.13;;;;;;;;;;5018881;28;20196;-85
2021/07/22 00:25:40;;;;;;;14.43;10.93;;;;;;;;;;5022719;28;20544;-85
2021/07/22 00:28:44;;;;;;;16.70;10.90;;;;;;;;;;5002632;28;20232;-85
2021/07/22 00:31:48;;;;;;;12.37;9.97;;;;;;;;;;5020099;28;20228;-85
2021/07/22 00:34:53;;;;;;;13.13;10.07;;;;;;;;;;5016139;28;20204;-85
2021/07/22 00:37:57;;;;;;;14.93;10.57;;;;;;;;;;4996041;28;20659;-85
2021/07/22 00:41:01;;;;;;;15.23;10.77;;;;;;;;;;4991312;28;20532;-85
2021/07/22 00:44:05;;;;;;;13.90;9.63;;;;;;;;;;4998359;28;20260;-85
2021/07/22 00:47:10;;;;;;;13.00;10.27;;;;;;;;;;5004721;28;20205;-85
2021/07/22 00:50:15;;;;;;;14.53;10.87;;;;;;;;;;4994742;28;20224;-85
2021/07/22 00:53:19;;;;;;;14.33;10.73;;;;;;;;;;5011025;28;20227;-85
2021/07/22 00:56:27;;;;;;;13.00;10.43;;;;;;;;;;4999868;28;20572;-85
2021/07/22 00:59:31;;;;;;;14.43;10.50;;;;;;;;;;5008912;28;20227;-85
2021/07/22 01:02:37;;;;;;;15.27;11.10;;;;;;;;;;5033262;28;20188;-85
2021/07/22 01:05:42;;;;;;;16.73;11.13;;;;;;;;;;5000086;28;20292;-85
2021/07/22 01:08:47;;;;;;;15.03;10.40;;;;;;;;;;5002708;28;20240;-85
2021/07/22 01:11:57;;;;;;;15.33;10.70;;;;;;;;;;5016901;28;20223;-85
2021/07/22 01:15:02;;;;;;;14.03;10.87;;;;;;;;;;5011070;28;20188;-85
2021/07/22 01:18:07;;;;;;;15.20;10.83;;;;;;;;;;5014885;28;20544;-85
2021/07/22 01:21:11;;;;;;;19.37;11.20;;;;;;;;;;4991012;28;20200;-85
2021/07/22 01:24:16;;;;;;;17.17;10.50;;;;;;;;;;4991295;28;20193;-85
2021/07/22 01:27:32;;;;;;;14.13;10.13;;;;;;;;;;5017281;28;20224;-85
2021/07/22 01:30:42;;;;;;;15.03;10.23;;;;;;;;;;5021700;28;20196;-85
2021/07/22 01:33:46;;;;;;;14.47;10.83;;;;;;;;;;5010468;28;20212;-85
2021/07/22 01:36:51;;;;;;;15.03;10.23;;;;;;;;;;5021930;28;20219;-85
2021/07/22 01:39:56;;;;;;;14.67;10.60;;;;;;;;;;4990703;28;20232;-85
2021/07/22 01:43:05;;;;;;;12.27;10.43;;;;;;;;;;5002079;28;20189;-85
2021/07/22 01:46:19;;;;;;;16.50;11.23;;;;;;;;;;4992114;28;20201;-85
2021/07/22 01:49:25;;;;;;;14.63;10.43;;;;;;;;;;5007115;28;20232;-85
2021/07/22 01:52:34;;;;;;;14.00;10.70;;;;;;;;;;4992293;28;20216;-85
2021/07/22 01:55:38;;;;;;;15.90;10.83;;;;;;;;;;4995013;28;20190;-85
2021/07/22 01:58:44;;;;;;;13.93;10.47;;;;;;;;;;5021943;28;20234;-85
2021/07/22 02:01:50;;;;;;;17.93;11.20;;;;;;;;;;5024787;28;20207;-85
2021/07/22 02:05:07;;;;;;;14.23;10.87;;;;;;;;;;5010591;28;20556;-85
2021/07/22 02:08:11;;;;;;;14.07;11.00;;;;;;;;;;5017096;28;20189;-85
2021/07/22 02:11:16;;;;;;;15.03;11.03;;;;;;;;;;4994625;28;20192;-85
2021/07/22 02:14:21;;;;;;;15.40;11.80;;;;;;;;;;4994137;28;20185;-85
2021/07/22 02:17:27;;;;;;;18.23;11.33;;;;;;;;;;5017055;28;20212;-85
2021/07/22 02:20:30;;;;;;;18.90;12.13;;;;;;;;;;5006911;28;20236;-85
2021/07/22 02:23:37;;;;;;;17.60;11.30;;;;;;;;;;4994856;28;20192;-85
2021/07/22 02:27:13;;;;;;;16.50;11.53;;;;;;;;;;5019167;28;20188;-85
2021/07/22 02:30:17;;;;;;;16.70;12.10;;;;;;;;;;5012704;28;20235;-85
2021/07/22 02:33:21;;;;;;;14.27;11.07;;;;;;;;;;5016159;28;20223;-85
2021/07/22 02:36:27;;;;;;;16.63;11.30;;;;;;;;;;5014153;28;20212;-85
2021/07/22 02:39:38;;;;;;;14.37;10.53;;;;;;;;;;5004603;28;20240;-85
2021/07/22 02:42:43;;;;;;;12.27;10.10;;;;;;;;;;5004885;28;20664;-85
2021/07/22 02:45:51;;;;;;;13.93;10.90;;;;;;;;;;5016208;28;20184;-85
2021/07/22 02:48:57;;;;;;;14.70;10.07;;;;;;;;;;5012324;28;20237;-85
2021/07/22 02:52:08;;;;;;;15.83;10.50;;;;;;;;;;5023097;28;20195;-85
2021/07/22 02:55:14;;;;;;;14.80;10.30;;;;;;;;;;4994233;28;20220;-85
2021/07/22 02:58:18;;;;;;;16.37;11.00;;;;;;;;;;5008510;28;20200;-85
2021/07/22 03:01:22;;;;;;;15.20;10.97;;;;;;;;;;5025913;28;20584;-85
2021/07/22 03:04:28;;;;;;;15.93;11.53;;;;;;;;;;5015437;28;20201;-85
2021/07/22 03:07:48;;;;;;;13.93;11.07;;;;;;;;;;4995451;28;20553;-85
2021/07/22 03:10:54;;;;;;;14.80;11.27;;;;;;;;;;4993984;28;20212;-85
2021/07/22 03:13:58;;;;;;;15.50;11.17;;;;;;;;;;5004466;28;20220;-85
2021/07/22 03:17:05;;;;;;;13.47;10.70;;;;;;;;;;5000142;28;20187;-85
2021/07/22 03:20:16;;;;;;;13.90;10.77;;;;;;;;;;5023819;28;20579;-84
2021/07/22 03:23:25;;;;;;;14.00;10.40;;;;;;;;;;5015653;28;20697;-85
2021/07/22 03:26:30;;;;;;;14.47;11.00;;;;;;;;;;5004203;28;20694;-85
2021/07/22 03:29:34;;;;;;;16.97;11.43;;;;;;;;;;4993043;28;20244;-85
2021/07/22 03:32:41;;;;;;;13.67;11.10;;;;;;;;;;5004069;28;20212;-85
2021/07/22 03:35:46;;;;;;;15.27;10.00;;;;;;;;;;5014722;28;20207;-85
2021/07/22 03:38:53;;;;;;;13.83;11.07;;;;;;;;;;5004663;28;20240;-85
2021/07/22 03:42:12;;;;;;;13.23;10.67;;;;;;;;;;5005913;28;20644;-85
2021/07/22 03:45:34;;;;;;;14.67;11.30;;;;;;;;;;5024765;28;20216;-85
2021/07/22 03:48:38;;;;;;;15.03;11.27;;;;;;;;;;5002971;28;20224;-85
2021/07/22 03:51:44;;;;;;;14.10;11.17;;;;;;;;;;4993195;28;20192;-85
2021/07/22 03:54:50;;;;;;;13.63;10.50;;;;;;;;;;5004412;28;20190;-85
2021/07/22 03:57:56;;;;;;;15.17;10.73;;;;;;;;;;5000772;28;20200;-85
2021/07/22 04:01:00;;;;;;;17.20;10.50;;;;;;;;;;4992752;28;20537;-85
2021/07/22 04:04:17;;;;;;;14.27;10.60;;;;;;;;;;5015826;28;20201;-85
2021/07/22 04:07:24;;;;;;;16.77;10.20;;;;;;;;;;4996823;28;20207;-85
2021/07/22 04:10:42;;;;;;;17.23;10.60;;;;;;;;;;5016041;28;20209;-85
2021/07/22 04:14:05;;;;;;;12.97;10.00;;;;;;;;;;5021475;28;20694;-85
2021/07/22 04:17:13;;;;;;;15.90;10.73;;;;;;;;;;5007966;28;20211;-85
2021/07/22 04:20:38;;;;;;;13.50;10.20;;;;;;;;;;4995241;28;20196;-85
2021/07/22 04:24:08;;;;;;;15.53;10.93;;;;;;;;;;4999383;28;20671;-85
2021/07/22 04:27:27;;;;;;;14.30;10.23;;;;;;;;;;5004645;28;20679;-85
2021/07/22 04:30:39;;;;;;;14.33;10.33;;;;;;;;;;5021182;28;20196;-85
2021/07/22 04:34:03;;;;;;;12.03;9.57;;;;;;;;;;5025464;28;20235;-85
2021/07/22 04:37:15;;;;;;;15.40;10.33;;;;;;;;;;5012226;28;20177;-85
2021/07/22 04:40:42;;;;;;;14.60;10.77;;;;;;;;;;5029826;28;20560;-85
2021/07/22 04:44:07;;;;;;;17.47;10.83;;;;;;;;;;5014032;28;20675;-84
2021/07/22 04:47:29;;;;;;;16.93;9.80;;;;;;;;;;5024652;28;20196;-85
2021/07/22 04:50:48;;;;;;;13.80;10.17;;;;;;;;;;5013607;28;20185;-84
2021/07/22 04:54:16;;;;;;;15.30;10.73;;;;;;;;;;5025098;28;20207;-85
2021/07/22 04:57:21;;;;;;;25.73;10.43;;;;;;;;;;5014523;28;20192;-85
2021/07/22 05:00:26;;;;;;;17.30;10.17;;;;;;;;;;4991416;28;20227;-85
2021/07/22 05:03:33;;;;;;;16.20;10.90;;;;;;;;;;5018883;28;20279;-84
2021/07/22 05:06:37;;;;;;;15.77;11.23;;;;;;;;;;5014909;28;20556;-85
2021/07/22 05:10:04;;;;;;;16.30;11.23;;;;;;;;;;5013932;28;20224;-84
2021/07/22 05:13:35;;;;;;;19.10;11.90;;;;;;;;;;5024693;28;20219;-85
2021/07/22 05:16:44;;;;;;;23.00;11.70;;;;;;;;;;4992038;28;20193;-86
2021/07/22 05:20:16;;;;;;;13.87;10.83;;;;;;;;;;5004602;28;20215;-86
2021/07/22 05:23:27;;;;;;;16.80;11.67;;;;;;;;;;5003246;28;20196;-86
2021/07/22 05:26:41;;;;;;;15.57;11.03;;;;;;;;;;5012232;28;20187;-85
2021/07/22 05:30:05;;;;;;;14.57;10.80;;;;;;;;;;5013404;28;20223;-86
2021/07/22 05:33:22;;;;;;;14.63;10.93;;;;;;;;;;5016416;28;20231;-85
2021/07/22 05:36:31;;;;;;;18.63;10.37;;;;;;;;;;5015275;28;20195;-85
2021/07/22 05:39:41;;;;;;;16.40;10.67;;;;;;;;;;5050912;22;20232;-84
2021/07/22 05:42:45;;;;;;;19.13;10.87;;;;;;;;;;5004480;28;20583;-89
2021/07/22 05:45:49;;;;;;;17.77;10.37;;;;;;;;;;5016528;28;20204;-84
2021/07/22 05:48:53;;;;;;;20.27;11.17;;;;;;;;;;5005405;28;20208;-86
2021/07/22 05:51:57;;;;;;;15.17;10.67;;;;;;;;;;4991402;28;20241;-86
2021/07/22 05:55:28;;;;;;;15.67;10.37;;;;;;;;;;4977845;28;20245;-90
2021/07/22 05:58:32;;;;;;;13.37;9.77;;;;;;;;;;4956233;28;20210;-87
2021/07/22 06:01:36;;;;;;;14.97;10.03;;;;;;;;;;4994915;28;20217;-86
2021/07/22 06:04:41;;;;;;;15.63;9.63;;;;;;;;;;4986393;28;20652;-86
2021/07/22 06:07:46;;;;;;;18.50;10.27;;;;;;;;;;4986291;28;20179;-86
2021/07/22 06:10:50;;;;;;;11.80;9.20;;;;;;;;;;4975143;28;20572;-86
2021/07/22 06:13:54;;;;;;;18.20;9.87;;;;;;;;;;4989754;28;20723;-86
2021/07/22 06:16:58;;;;;;;16.77;10.97;;;;;;;;;;5014459;28;20220;-86
2021/07/22 06:20:06;;;;;;;17.47;10.40;;;;;;;;;;4955311;28;20230;-86
2021/07/22 06:23:10;;;;;;;14.63;9.83;;;;;;;;;;4991757;28;20193;-86
2021/07/22 06:26:14;;;;;;;16.33;9.07;;;;;;;;;;4993265;28;20201;-86
2021/07/22 06:29:18;;;;;;;17.53;10.73;;;;;;;;;;4979755;28;20189;-86
2021/07/22 06:32:22;;;;;;;16.37;9.90;;;;;;;;;;4993273;28;20224;-86
2021/07/22 06:35:26;;;;;;;16.23;9.67;;;;;;;;;;4992619;28;20189;-86
2021/07/22 06:38:31;;;;;;;14.47;9.17;;;;;;;;;;4965418;28;20202;-87
2021/07/22 06:41:34;;;;;;;14.43;9.80;;;;;;;;;;4967956;28;20565;-87
2021/07/22 06:44:39;;;;;;;11.70;9.57;;;;;;;;;;4965855;28;20187;-87
2021/07/22 06:47:43;;;;;;;11.50;9.73;;;;;;;;;;4955120;28;20626;-87
2021/07/22 06:50:47;;;;;;;13.00;10.13;;;;;;;;;;4976546;28;20218;-87
2021/07/22 06:53:52;;;;;;;13.60;9.50;;;;;;;;;;4977091;28;20226;-87
2021/07/22 06:56:57;;;;;;;13.83;9.63;;;;;;;;;;5002467;28;20193;-87
2021/07/22 07:00:06;;;;;;;14.77;9.33;;;;;;;;;;4965915;28;20583;-87
2021/07/22 07:03:10;;;;;;;12.07;8.47;;;;;;;;;;4976456;28;20626;-87
2021/07/22 07:06:14;;;;;;;10.90;8.60;;;;;;;;;;4979710;28;20689;-87
2021/07/22 07:09:18;;;;;;;14.00;9.07;;;;;;;;;;5009835;28;20648;-87
2021/07/22 07:12:22;;;;;;;13.17;9.40;;;;;;;;;;5002400;28;20189;-87
2021/07/22 07:15:26;;;;;;;12.40;9.13;;;;;;;;;;4973756;28;20660;-86
2021/07/22 07:18:30;;;;;;;12.83;9.30;;;;;;;;;;4983179;28;20201;-87
2021/07/22 07:21:38;;;;;;;13.60;9.43;;;;;;;;;;5004147;28;20553;-87
2021/07/22 07:24:41;;;;;;;11.90;9.23;;;;;;;;;;4992334;28;20186;-87
2021/07/22 07:27:46;;;;;;;15.47;8.63;;;;;;;;;;4989383;28;20193;-87
2021/07/22 07:30:50;;;;;;;12.97;8.43;;;;;;;;;;4965997;28;20677;-87
2021/07/22 07:33:54;;;;;;;14.00;8.13;;;;;;;;;;4954115;28;20210;-87
2021/07/22 07:36:58;;;;;;;10.97;8.30;;;;;;;;;;4980435;28;20186;-88
2021/07/22 07:40:03;;;;;;;10.67;8.67;;;;;;;;;;4992782;28;20232;-88
2021/07/22 07:43:07;;;;;;;11.07;8.27;;;;;;;;;;4994284;28;20186;-87
2021/07/22 07:46:11;;;;;;;11.20;7.30;;;;;;;;;;4985418;28;20549;-87
2021/07/22 07:49:15;;;;;;;12.20;8.00;;;;;;;;;;4984317;28;20182;-87
2021/07/22 07:52:19;;;;;;;9.30;7.40;;;;;;;;;;4999185;28;20198;-87
2021/07/22 07:55:23;;;;;;;8.73;7.60;;;;;;;;;;4991741;28;20221;-87
2021/07/22 07:58:28;;;;;;;11.57;8.40;;;;;;;;;;4981261;28;20189;-87
2021/07/22 08:01:32;;;;;;;10.23;7.90;;;;;;;;;;4991955;28;20618;-87
2021/07/22 08:04:36;;;;;;;10.13;7.30;;;;;;;;;;4972194;28;20199;-87
2021/07/22 08:07:52;;;;;;;9.63;8.07;;;;;;;;;;4966217;28;20185;-88
2021/07/22 08:10:58;;;;;;;10.50;7.80;;;;;;;;;;4975517;28;20219;-88
2021/07/22 08:14:02;;;;;;;8.73;7.32;;;;;;;;;;5000270;28;20209;-88
2021/07/22 08:17:07;;;;;;;11.48;7.82;;;;;;;;;;4981976;28;20199;-88
2021/07/22 08:20:11;;;;;;;10.23;7.72;;;;;;;;;;4968307;28;20226;-88
2021/07/22 08:23:15;;;;;;;9.45;7.78;;;;;;;;;;4982809;28;20662;-88
2021/07/22 08:26:19;;;;;;;8.98;7.25;;;;;;;;;;4986402;28;20192;-88
2021/07/22 08:29:23;;;;;;;8.68;7.70;;;;;;;;;;5014874;28;20188;-88
2021/07/22 08:32:27;;;;;;;11.18;7.65;;;;;;;;;;4991130;28;20199;-87
2021/07/22 08:35:31;;;;;;;13.07;7.43;;;;;;;;;;4987212;28;20224;-88
2021/07/22 08:38:35;;;;;;;13.45;7.22;;;;;;;;;;4963645;28;20205;-88
2021/07/22 08:41:44;;;;;;;11.75;7.20;;;;;;;;;;4952664;28;20228;-85
2021/07/22 08:44:49;;;;;;;11.48;7.35;;;;;;;;;;4974020;28;20526;-86
2021/07/22 08:47:53;;;;;;;9.85;7.53;;;;;;;;;;4984541;28;20186;-86
2021/07/22 08:50:59;;;;;;;11.85;8.02;;;;;;;;;;4964758;28;20221;-86
2021/07/22 08:54:03;;;;;;;9.50;7.25;;;;;;;;;;4961974;28;20218;-86
2021/07/22 08:57:10;;;;;;;11.30;7.68;;;;;;;;;;4982857;28;20190;-86
2021/07/22 09:00:17;;;;;;;9.15;6.90;;;;;;;;;;4983115;28;20222;-85
2021/07/22 09:03:21;;;;;;;9.93;7.32;;;;;;;;;;4980554;28;20194;-86
2021/07/22 09:06:25;;;;;;;11.60;7.30;;;;;;;;;;4971960;28;20178;-86
2021/07/22 09:09:29;;;;;;;9.73;7.43;;;;;;;;;;4972310;28;20182;-87
2021/07/22 09:12:36;;;;;;;9.68;7.38;;;;;;;;;;4982486;28;20206;-87
2021/07/22 09:15:51;;;;;;;11.98;7.13;;;;;;;;;;5002317;28;20221;-87
2021/07/22 09:18:55;;;;;;;12.07;7.10;;;;;;;;;;5002536;28;20178;-87
2021/07/22 09:22:00;;;;;;;12.30;8.18;;;;;;;;;;4986331;28;20213;-87
2021/07/22 09:25:04;;;;;;;10.68;7.88;;;;;;;;;;4977156;28;20676;-87
2021/07/22 09:28:13;;;;;;;9.90;7.90;;;;;;;;;;4978117;28;20190;-86
2021/07/22 09:31:17;;;;;;;10.35;7.68;;;;;;;;;;4970589;28;20693;-87
2021/07/22 09:34:26;;;;;;;9.27;7.53;;;;;;;;;;4994467;28;20209;-87
2021/07/22 09:37:30;;;;;;;10.80;7.43;;;;;;;;;;4973218;28;20187;-86
2021/07/22 09:40:35;;;;;;;8.38;7.28;;;;;;;;;;4993543;28;20222;-86
2021/07/22 09:43:40;;;;;;;8.95;7.32;;;;;;;;;;4963011;28;20187;-86
2021/07/22 09:46:44;;;;;;;9.05;7.25;;;;;;;;;;4971254;28;20529;-86
2021/07/22 09:49:49;;;;;;;10.05;8.02;;;;;;;;;;4962792;28;20187;-86
2021/07/22 09:53:08;;;;;;;14.20;7.15;;;;;;;;;;4986144;28;20185;-86
2021/07/22 09:56:34;;;;;;;10.35;7.68;;;;;;;;;;5001331;28;20214;-86
2021/07/22 09:59:38;;;;;;;11.52;7.88;;;;;;;;;;4999980;28;20194;-86
2021/07/22 10:02:42;;;;;;;12.63;7.57;;;;;;;;;;4990505;28;20201;-86
2021/07/22 10:05:51;;;;;;;8.18;6.90;;;;;;;;;;4985564;28;20198;-86
2021/07/22 10:08:55;;;;;;;16.73;8.48;;;;;;;;;;4988700;28;20645;-88
2021/07/22 10:12:02;;;;;;;8.40;7.15;;;;;;;;;;4971617;28;20210;-88
2021/07/22 10:15:06;;;;;;;12.25;7.53;;;;;;;;;;4985428;28;20202;-87
2021/07/22 10:18:11;;;;;;;10.05;7.78;;;;;;;;;;4976852;28;20194;-91
2021/07/22 10:21:16;;;;;;;9.98;6.93;;;;;;;;;;4977945;28;20721;-86
2021/07/22 10:24:21;;;;;;;9.90;7.88;;;;;;;;;;4966195;28;20187;-86
2021/07/22 10:27:24;;;;;;;11.95;7.63;;;;;;;;;;4999063;28;20198;-86
2021/07/22 10:30:30;;;;;;;10.60;7.78;;;;;;;;;;4986631;28;20556;-91
2021/07/22 10:33:37;;;;;;;8.55;7.65;;;;;;;;;;4977607;28;20179;-86
2021/07/22 10:36:43;;;;;;;11.77;7.63;;;;;;;;;;4977407;28;20521;-86
2021/07/22 10:40:05;;;;;;;9.68;7.53;;;;;;;;;;4965763;28;20179;-86
2021/07/22 10:43:38;;;;;;;11.07;7.70;;;;;;;;;;5010729;28;20554;-86
2021/07/22 10:46:55;;;;;;;9.05;7.60;;;;;;;;;;5004944;28;20182;-87
2021/07/22 10:49:59;;;;;;;11.30;7.68;;;;;;;;;;4993178;28;20273;-87
2021/07/22 10:53:04;;;;;;;9.25;7.13;;;;;;;;;;4985480;28;20187;-87
2021/07/22 10:56:15;;;;;;;9.18;7.60;;;;;;;;;;4973849;28;20210;-87
2021/07/22 10:59:53;;;;;;;9.23;7.68;;;;;;;;;;4985179;28;20194;-87
2021/07/22 11:02:58;;;;;;;12.68;7.70;;;;;;;;;;4974486;28;20198;-87
2021/07/22 11:06:04;;;;;;;9.77;7.80;;;;;;;;;;4984886;28;20198;-87
2021/07/22 11:09:08;;;;;;;8.90;7.68;;;;;;;;;;4980831;28;20546;-87
2021/07/22 11:12:48;;;;;;;9.07;7.55;;;;;;;;;;4974292;28;20186;-86
2021/07/22 11:15:52;;;;;;;12.20;7.28;;;;;;;;;;4976843;28;20218;-87
2021/07/22 11:19:01;;;;;;;8.77;7.88;;;;;;;;;;4988983;28;20190;-87
2021/07/22 11:22:07;;;;;;;12.55;8.07;;;;;;;;;;4981762;28;20239;-87
2021/07/22 11:25:12;;;;;;;11.23;8.00;;;;;;;;;;4994664;28;20198;-86
2021/07/22 11:28:23;;;;;;;10.57;8.15;;;;;;;;;;4971994;28;20198;-87
2021/07/22 11:31:31;;;;;;;8.77;7.88;;;;;;;;;;4993313;28;20602;-87
2021/07/22 11:34:35;;;;;;;11.95;7.75;;;;;;;;;;4993927;28;20194;-86
2021/07/22 11:37:39;;;;;;;15.15;7.88;;;;;;;;;;4980788;28;20190;-86
2021/07/22 11:40:44;;;;;;;12.30;7.68;;;;;;;;;;4990438;28;20419;-87
2021/07/22 11:43:59;;;;;;;9.27;8.13;;;;;;;;;;4983153;28;20664;-86
2021/07/22 11:47:29;;;;;;;11.45;7.90;;;;;;;;;;4972870;28;20190;-86
2021/07/22 11:50:33;;;;;;;16.88;8.43;;;;;;;;;;4972850;28;20226;-86
2021/07/22 11:53:39;;;;;;;8.63;7.57;;;;;;;;;;4999794;28;20196;-86
2021/07/22 11:56:45;;;;;;;8.88;7.97;;;;;;;;;;4984004;28;20213;-86
2021/07/22 11:59:50;;;;;;;16.83;8.18;;;;;;;;;;4986011;28;20194;-89
2021/07/22 12:02:56;;;;;;;11.98;7.65;;;;;;;;;;4972290;28;20203;-86
2021/07/22 12:06:00;;;;;;;9.75;8.05;;;;;;;;;;4965716;28;20677;-85
2021/07/22 12:09:06;;;;;;;17.65;9.45;;;;;;;;;;5014709;23;20528;-88
2021/07/22 12:12:10;;;;;;;11.75;8.45;;;;;;;;;;5011317;28;20246;-85
2021/07/22 12:15:14;;;;;;;10.60;8.38;;;;;;;;;;5011138;28;20236;-85
2021/07/22 12:18:20;;;;;;;13.32;7.72;;;;;;;;;;5011758;28;20189;-85
2021/07/22 12:21:26;;;;;;;10.70;8.32;;;;;;;;;;5014547;28;20217;-86
2021/07/22 12:24:37;;;;;;;12.57;8.25;;;;;;;;;;5003288;28;20636;-87
2021/07/22 12:27:56;;;;;;;9.45;8.52;;;;;;;;;;4991757;28;20182;-88
2021/07/22 12:31:21;;;;;;;10.93;8.45;;;;;;;;;;5002627;28;20222;-88
2021/07/22 12:34:36;;;;;;;21.48;9.18;;;;;;;;;;5003136;28;20182;-88
2021/07/22 12:37:57;;;;;;;11.60;8.02;;;;;;;;;;5002313;28;20512;-87
2021/07/22 12:41:07;;;;;;;12.65;8.70;;;;;;;;;;5013974;28;20226;-87
2021/07/22 12:44:32;;;;;;;16.55;9.13;;;;;;;;;;5002728;28;20185;-87
2021/07/22 12:47:37;;;;;;;10.95;8.63;;;;;;;;;;5002615;28;20182;-87
2021/07/22 12:50:50;;;;;;;12.98;8.15;;;;;;;;;;5002546;28;20221;-87
2021/07/22 12:53:56;;;;;;;9.63;8.32;;;;;;;;;;5013984;28;20186;-87
2021/07/22 12:57:04;;;;;;;11.80;7.80;;;;;;;;;;5025113;28;20205;-87
2021/07/22 13:00:10;;;;;;;13.23;8.63;;;;;;;;;;5013696;28;20217;-88
2021/07/22 13:03:15;;;;;;;9.65;7.82;;;;;;;;;;5002792;28;20185;-87
2021/07/22 13:06:20;;;;;;;10.98;8.25;;;;;;;;;;5002683;28;20178;-87
2021/07/22 13:09:24;;;;;;;10.77;8.63;;;;;;;;;;5002472;28;20217;-88
2021/07/22 13:12:32;;;;;;;10.05;8.35;;;;;;;;;;5013228;28;20548;-88
2021/07/22 13:15:36;;;;;;;10.70;8.63;;;;;;;;;;5014095;28;20226;-87
2021/07/22 13:18:40;;;;;;;16.98;8.48;;;;;;;;;;5024887;28;20194;-87
2021/07/22 13:21:44;;;;;;;12.10;8.90;;;;;;;;;;5001941;28;20190;-87
2021/07/22 13:24:51;;;;;;;10.38;8.32;;;;;;;;;;5001977;28;20178;-87
2021/07/22 13:27:55;;;;;;;16.38;8.70;;;;;;;;;;5024644;28;20170;-87
2021/07/22 13:30:59;;;;;;;12.40;8.38;;;;;;;;;;5002173;28;20222;-87
2021/07/22 13:34:03;;;;;;;14.13;8.75;;;;;;;;;;5013434;28;20190;-87
2021/07/22 13:37:09;;;;;;;13.35;8.93;;;;;;;;;;5001874;28;20210;-85
2021/07/22 13:40:18;;;;;;;10.38;8.63;;;;;;;;;;5001911;28;20217;-85
2021/07/22 13:43:22;;;;;;;9.90;8.90;;;;;;;;;;5013405;28;20553;-85
2021/07/22 13:46:26;;;;;;;11.40;8.55;;;;;;;;;;5001827;28;20202;-85
2021/07/22 13:49:30;;;;;;;11.45;8.77;;;;;;;;;;5004584;28;20217;-85
2021/07/22 13:52:39;;;;;;;9.82;8.82;;;;;;;;;;5006028;28;20190;-85
2021/07/22 13:55:43;;;;;;;10.85;8.10;;;;;;;;;;5016686;28;20251;-85
2021/07/22 13:58:47;;;;;;;10.82;9.15;;;;;;;;;;5005796;28;20628;-85
2021/07/22 14:01:51;;;;;;;11.25;8.88;;;;;;;;;;5005712;28;20181;-85
2021/07/22 14:04:56;;;;;;;12.02;8.50;;;;;;;;;;5016945;28;20181;-85
2021/07/22 14:08:00;;;;;;;13.43;9.30;;;;;;;;;;5005370;28;20178;-85
2021/07/22 14:11:04;;;;;;;13.38;9.07;;;;;;;;;;5027786;28;20589;-85
2021/07/22 14:14:08;;;;;;;10.48;9.07;;;;;;;;;;5005756;28;20185;-86
2021/07/22 14:17:13;;;;;;;12.18;8.98;;;;;;;;;;5005175;28;20665;-86
2021/07/22 14:20:17;;;;;;;14.05;8.93;;;;;;;;;;5005338;28;20217;-87
2021/07/22 14:23:22;;;;;;;9.80;8.80;;;;;;;;;;5005495;28;20185;-87
2021/07/22 14:26:26;;;;;;;11.15;9.32;;;;;;;;;;5005414;28;20629;-87
2021/07/22 14:29:30;;;;;;;12.75;8.90;;;;;;;;;;5006467;28;20213;-88
2021/07/22 14:32:34;;;;;;;10.35;9.27;;;;;;;;;;5005129;28;20186;-87
2021/07/22 14:35:38;;;;;;;11.23;8.88;;;;;;;;;;5005263;28;20178;-87
2021/07/22 14:38:42;;;;;;;9.95;8.45;;;;;;;;;;5028010;28;20174;-87
2021/07/22 14:41:46;;;;;;;12.90;8.93;;;;;;;;;;5004845;28;20189;-87
2021/07/22 14:44:50;;;;;;;10.85;8.73;;;;;;;;;;5004859;28;20633;-85
2021/07/22 14:47:54;;;;;;;15.65;9.35;;;;;;;;;;5005005;28;20656;-86
2021/07/22 14:50:59;;;;;;;12.00;8.60;;;;;;;;;;5005209;28;20225;-87
2021/07/22 14:54:03;;;;;;;11.57;8.23;;;;;;;;;;5016274;28;20182;-86
2021/07/22 14:57:07;;;;;;;10.07;8.60;;;;;;;;;;5004593;28;20206;-86
2021/07/22 15:00:12;;;;;;;12.52;8.82;;;;;;;;;;5003991;28;20213;-85
2021/07/22 15:03:17;;;;;;;12.93;8.98;;;;;;;;;;5004372;28;20190;-84
2021/07/22 15:06:21;;;;;;;14.95;9.10;;;;;;;;;;5015641;28;20174;-85
2021/07/22 15:09:25;;;;;;;13.02;8.82;;;;;;;;;;5015608;28;20703;-85
2021/07/22 15:12:28;;;;;;;13.50;8.60;;;;;;;;;;5001201;28;20191;-87
2021/07/22 15:15:33;;;;;;;11.38;8.73;;;;;;;;;;5006818;28;20198;-85
2021/07/22 15:18:36;;;;;;;10.73;8.95;;;;;;;;;;5001270;28;20194;-86
2021/07/22 15:21:41;;;;;;;12.20;8.77;;;;;;;;;;5000007;28;20186;-86
2021/07/22 15:24:44;;;;;;;9.32;8.23;;;;;;;;;;5002614;28;20198;-86
2021/07/22 15:27:48;;;;;;;11.50;9.25;;;;;;;;;;5006699;28;20198;-86
2021/07/22 15:30:52;;;;;;;12.38;8.38;;;;;;;;;;4995674;28;20218;-86
2021/07/22 15:33:56;;;;;;;10.77;8.40;;;;;;;;;;5008028;28;20197;-86
2021/07/22 15:37:00;;;;;;;10.02;8.55;;;;;;;;;;4995725;28;20696;-86
2021/07/22 15:40:06;;;;;;;11.85;8.60;;;;;;;;;;4995967;28;20229;-86
2021/07/22 15:43:12;;;;;;;12.57;9.07;;;;;;;;;;5009663;28;20205;-86
2021/07/22 15:46:16;;;;;;;13.50;8.77;;;;;;;;;;5013189;28;20676;-86
2021/07/22 15:49:20;;;;;;;11.48;9.15;;;;;;;;;;4995290;28;20182;-86
2021/07/22 15:52:24;;;;;;;11.30;8.88;;;;;;;;;;5024362;28;20201;-86
2021/07/22 15:55:28;;;;;;;11.45;8.38;;;;;;;;;;5003829;28;20182;-86
2021/07/22 15:58:32;;;;;;;12.25;9.40;;;;;;;;;;5009485;28;20197;-86
2021/07/22 16:01:37;;;;;;;14.98;8.65;;;;;;;;;;5006718;28;20187;-86
2021/07/22 16:05:08;;;;;;;11.50;8.02;;;;;;;;;;4995337;28;20516;-85
2021/07/22 16:08:13;;;;;;;9.90;8.27;;;;;;;;;;4994033;28;20188;-85
2021/07/22 16:11:17;;;;;;;11.88;8.88;;;;;;;;;;5022764;28;20713;-85
2021/07/22 16:14:22;;;;;;;11.30;8.88;;;;;;;;;;5012892;28;20181;-85
2021/07/22 16:17:28;;;;;;;19.25;9.05;;;;;;;;;;4990974;28;20217;-86
2021/07/22 16:20:33;;;;;;;19.65;9.75;;;;;;;;;;4996128;28;20586;-89
2021/07/22 16:23:39;;;;;;;14.40;9.15;;;;;;;;;;4999419;28;20205;-87
2021/07/22 16:26:44;;;;;;;38.33;11.45;;;;;;;;;;5010432;28;20180;-89
2021/07/22 16:29:48;;;;;;;15.43;9.35;;;;;;;;;;4984081;28;20226;-86
2021/07/22 16:32:52;;;;;;;14.40;8.95;;;;;;;;;;4990262;28;20200;-89
2021/07/22 16:35:56;;;;;;;11.20;8.40;;;;;;;;;;5001759;28;20199;-86
2021/07/22 16:39:00;;;;;;;11.30;8.82;;;;;;;;;;4979534;28;20188;-87
2021/07/22 16:42:04;;;;;;;12.63;8.95;;;;;;;;;;4990913;28;20705;-86
2021/07/22 16:45:09;;;;;;;10.88;8.18;;;;;;;;;;5004074;28;20198;-86
2021/07/22 16:48:21;;;;;;;12.13;9.13;;;;;;;;;;4979921;28;20184;-85
2021/07/22 16:51:25;;;;;;;16.90;9.65;;;;;;;;;;4990468;28;20220;-86
2021/07/22 16:54:29;;;;;;;15.00;8.50;;;;;;;;;;5008130;28;20685;-85
2021/07/22 16:57:36;;;;;;;12.90;8.98;;;;;;;;;;5002202;28;20211;-87
2021/07/22 17:00:42;;;;;;;11.27;7.90;;;;;;;;;;4991308;28;20683;-86
2021/07/22 17:03:46;;;;;;;13.88;8.95;;;;;;;;;;5009849;28;20547;-86
2021/07/22 17:06:50;;;;;;;11.35;8.50;;;;;;;;;;4982799;28;20196;-85
2021/07/22 17:09:54;;;;;;;11.52;8.90;;;;;;;;;;4982929;28;20220;-87
2021/07/22 17:12:58;;;;;;;11.27;8.77;;;;;;;;;;4987558;28;20197;-87
2021/07/22 17:16:02;;;;;;;14.32;9.20;;;;;;;;;;5013655;28;20178;-84
2021/07/22 17:19:06;;;;;;;10.75;8.98;;;;;;;;;;5002445;28;20181;-85
2021/07/22 17:22:10;;;;;;;10.70;8.93;;;;;;;;;;5014159;28;20194;-86
2021/07/22 17:25:15;;;;;;;11.50;9.03;;;;;;;;;;5005015;28;20635;-85
2021/07/22 17:28:19;;;;;;;12.70;9.33;;;;;;;;;;4994076;28;20182;-84
2021/07/22 17:31:23;;;;;;;9.77;8.43;;;;;;;;;;5011263;28;20218;-85
2021/07/22 17:34:27;;;;;;;12.87;9.07;;;;;;;;;;5009447;28;20199;-84
2021/07/22 17:37:31;;;;;;;13.70;9.00;;;;;;;;;;5001931;28;20211;-84
2021/07/22 17:40:35;;;;;;;13.03;9.00;;;;;;;;;;5009961;28;20221;-84
2021/07/22 17:43:40;;;;;;;9.87;8.87;;;;;;;;;;5012726;28;20187;-86
2021/07/22 17:46:44;;;;;;;14.77;8.90;;;;;;;;;;5013746;28;20180;-86
2021/07/22 17:49:48;;;;;;;14.33;9.43;;;;;;;;;;5006569;28;20222;-86
2021/07/22 17:52:52;;;;;;;13.33;9.60;;;;;;;;;;4985231;28;20201;-85
2021/07/22 17:55:57;;;;;;;11.10;9.20;;;;;;;;;;5012850;28;20190;-86
2021/07/22 17:59:02;;;;;;;11.10;9.50;;;;;;;;;;5013069;28;20521;-86
2021/07/22 18:02:09;;;;;;;12.97;9.07;;;;;;;;;;5008364;28;20186;-87
2021/07/22 18:05:13;;;;;;;12.53;9.80;;;;;;;;;;4989443;28;20206;-87
2021/07/22 18:08:17;;;;;;;10.97;9.37;;;;;;;;;;5005710;28;20208;-87
2021/07/22 18:11:21;;;;;;;15.60;10.40;;;;;;;;;;4997814;28;20231;-87
2021/07/22 18:14:25;;;;;;;13.73;9.00;;;;;;;;;;5008136;28;20689;-87
2021/07/22 18:17:29;;;;;;;10.80;9.10;;;;;;;;;;5009036;28;20580;-87
2021/07/22 18:20:33;;;;;;;14.23;10.03;;;;;;;;;;5008654;28;20234;-87
2021/07/22 18:23:38;;;;;;;10.40;9.17;;;;;;;;;;4996256;28;20223;-87